Back to top

Sheridan, WY weather

Sheridan County Airport, Sheridan, WY: 12/11/2019 16:53
Visibility10 statute milessun with broken clouds
View 7-Day Forecast
Area Summary
Sky/CloudsBroken at 8000ft
Weather [last 24 hours]None
Pressure29.87 in.Hg (1012 hPa)
3-hour Pressure Tendency0.03838 in.Hg (1.3 hPa) Increasing steadily or unsteadily
Dew Point21.9 °F (-5.6 °C)
Relative Humidity 81 %
Temperature27 °F (-2.8 °C)red thermometer
Wind Chill21.6 °F (-5.77 °C)
Reading TimeMinimum to Maximum Temperature
6-hr ending 12/11@16:5327 °F to 33.1 °F (-2.8 °C to 0.6 °C)
6-hr ending 12/11@10:5316 °F to 28.9 °F (-8.9 °C to -1.7 °C)
6-hr ending 12/11@04:5314 °F to 23 °F (-10 °C to -5 °C)
6-hr ending 12/10@22:5319.9 °F to 35.1 °F (-6.7 °C to 1.7 °C)
24-hr ending 12/10@23:5318 °F to 39 °F (-7.8 °C to 3.9 °C)
Wind4.6 MPH (4 KT) green arrow pointing 337.5 degrees
Wind FromNorth/Northwest (330 Degrees)
Twilight Begins07:01Sunshine Yesterday
Sunrise07:34N/A
Sunset16:29
Twilight Ends17:02
METARKSHR 112353Z AUTO 33004KT 10SM BKN080 M03/M06 A2987 RMK AO2 SLP164 T10281056 10006 21028 52013
Tags: